Terminal Aerodrome Forecast
Issued by NWS

Home | Current Version | Previous Version | Text Only | Print | Product List | Glossary On
Versions: 1 2 3 4 5 6 7 8 9 10 11 12 13 14 15 16 17 18 19 20 21 22 23 24 25 26 27 28 29 30 31 32 33 34 35 36 37 38 39 40 41 42 43 44 45
833
FTUS45 KGJT 280541
TAFASE
TAF
KASE 280541Z 2806/2906 28005KT P6SM -RA BKN023 OVC035
     FM280700 VRB03KT P6SM -SHSN OVC045
     FM281000 VRB03KT 5SM -SHSN BR OVC020
     FM281500 00000KT 3SM -SHSNRA BR BKN030
     FM281700 32004KT 3SM -SHRA BR OVC035
     FM282100 31006KT 2SM -SHRA BR VCTS OVC015CB=

USA.gov is the U.S. government's official web portal to all federal, state and local government web resources and services.